Ana Sayfa
METAR-TAF:

METAR-TAF

Havaalanları :

Ouagadougou, Burkina Faso

Enlem: 12-21N, Boylam: 001-31W, yükseklik: 316 m

Güncel hava durumu gözlemi

Rapor saat 03:00 UTC de 55 dakika önce yapıldı.
Rüzgar kuzey/kuzeydoğudan 8 kt
Sıcaklık 26°C
Nem 16%
Basınç 1012 hPa
Görüş mesafesi: 8000 m

METAR: DFFD 280300Z 02008KT 8000 NSC 26/M02 Q1012 NOSIG

Saat: 03:55 (03:55 UTC)

Tahmin

Rapor saat 17:00 UTC de 10 saat ve 55 dakika önce yapıldı.
Ayın 27'si saat 18 UTC'den ayın 28'si saat 24 UTC'ye kadar geçerli Tahmin
Rüzgar kuzeydoğudan 8 kt
Görüş mesafesi: 2000 m
yaygın toz
Dönüşüyor
ayın 27'si saat 20 UTC'den ayın 27'si saat 22 UTC'ye kadar
Görüş mesafesi: 6000 m
Dönüşüyor
ayın 28'si saat 04 UTC'den ayın 28'si saat 06 UTC'ye kadar
Görüş mesafesi: 3500 m
yaygın toz
Geçici
ayın 28'si saat 06 UTC'den ayın 28'si saat 11 UTC'ye kadar
Görüş mesafesi: 2000 m
yaygın toz

TAF: DFFD 271700Z 2718/2824 04008KT 2000 DU NSC BECMG 2720/2722 6000 NSW BECMG 2804/2806 3500 DU TEMPO 2806/2811 2000 DU

4.000'den fazla havaalanı için hava durumu gözlemleri ve tahminleri (METAR ve TAF raporları).

Kullanılabilir istasyonlar harita üzerinde sarı ve kırmızı noktalarla gösterilir.

İstasyonun adını görmek için fareyi noktanın üzerinde gezdirin.

Sonrasında hava gözlem ve tahminlerini görmek için tıklayın.

Haritayı değiştirmek için: yaklaştırmak için siyah artı işaretli yeşil düğmeye ve uzaklaştırmak için de eksi işaretli düğmeye hızla tıklayın; bitişik haritalar için yeşil okları kullanın.


METAR-TAF: